Terminal Aerodrome Forecast
Issued by NWS Buffalo, NY

Home | Current Version | Previous Version | Text Only | Print | Product List | Glossary On
Versions: 1 2 3 4 5 6 7 8 9 10 11 12 13 14 15 16 17 18 19 20 21 22 23 24 25 26 27
000
FTUS41 KBUF 211700 RRA
TAFBUF
TAF
KBUF 211743Z 2118/2218 23018G32KT P6SM BKN035
     FM220000 27015G24KT P6SM VCSH OVC035
     FM220200 28013G23KT P6SM VCSH OVC030
     FM220400 29012G23KT P6SM VCSH OVC015
     FM220500 30012G23KT P6SM OVC015
     FM221500 29012G19KT P6SM BKN025=

USA.gov is the U.S. government's official web portal to all federal, state and local government web resources and services.